sensor_id;sensor_type;location;lat;lon;timestamp;temperature;humidity
44843;DHT22;31884;52.538;13.820;2023-04-03T00:01:20;0.90;91.80
44843;DHT22;31884;52.538;13.820;2023-04-03T00:03:46;0.80;91.80
44843;DHT22;31884;52.538;13.820;2023-04-03T00:06:12;0.80;91.60
44843;DHT22;31884;52.538;13.820;2023-04-03T00:08:38;0.80;91.20
44843;DHT22;31884;52.538;13.820;2023-04-03T00:11:06;0.80;90.80
44843;DHT22;31884;52.538;13.820;2023-04-03T00:13:32;0.80;90.70
44843;DHT22;31884;52.538;13.820;2023-04-03T00:15:59;0.80;90.40
44843;DHT22;31884;52.538;13.820;2023-04-03T00:18:24;0.80;89.80
44843;DHT22;31884;52.538;13.820;2023-04-03T00:20:50;0.80;89.70
44843;DHT22;31884;52.538;13.820;2023-04-03T00:23:16;0.80;89.30
44843;DHT22;31884;52.538;13.820;2023-04-03T00:25:42;0.80;88.70
44843;DHT22;31884;52.538;13.820;2023-04-03T00:28:08;0.80;88.10
44843;DHT22;31884;52.538;13.820;2023-04-03T00:30:33;0.80;88.10
44843;DHT22;31884;52.538;13.820;2023-04-03T00:32:59;0.80;87.50
44843;DHT22;31884;52.538;13.820;2023-04-03T00:35:27;0.80;88.00
44843;DHT22;31884;52.538;13.820;2023-04-03T00:37:53;0.80;87.80
44843;DHT22;31884;52.538;13.820;2023-04-03T00:40:21;0.80;88.10
44843;DHT22;31884;52.538;13.820;2023-04-03T00:42:49;0.70;88.50
44843;DHT22;31884;52.538;13.820;2023-04-03T00:45:38;0.70;87.60
44843;DHT22;31884;52.538;13.820;2023-04-03T00:48:06;0.70;88.10
44843;DHT22;31884;52.538;13.820;2023-04-03T00:50:35;0.70;89.00
44843;DHT22;31884;52.538;13.820;2023-04-03T00:53:02;0.60;89.10
44843;DHT22;31884;52.538;13.820;2023-04-03T00:55:29;0.60;88.90
44843;DHT22;31884;52.538;13.820;2023-04-03T00:57:55;0.60;89.90
44843;DHT22;31884;52.538;13.820;2023-04-03T01:00:22;0.60;90.10
44843;DHT22;31884;52.538;13.820;2023-04-03T01:02:48;0.60;90.00
44843;DHT22;31884;52.538;13.820;2023-04-03T01:05:15;0.60;90.00
44843;DHT22;31884;52.538;13.820;2023-04-03T01:07:41;0.50;89.90
44843;DHT22;31884;52.538;13.820;2023-04-03T01:10:11;0.50;89.30
44843;DHT22;31884;52.538;13.820;2023-04-03T01:12:41;0.50;90.00
44843;DHT22;31884;52.538;13.820;2023-04-03T01:15:09;0.50;90.20
44843;DHT22;31884;52.538;13.820;2023-04-03T01:17:54;0.40;90.10
44843;DHT22;31884;52.538;13.820;2023-04-03T01:20:34;0.50;89.90
44843;DHT22;31884;52.538;13.820;2023-04-03T01:25:51;0.40;89.60
44843;DHT22;31884;52.538;13.820;2023-04-03T01:28:26;0.40;90.00
44843;DHT22;31884;52.538;13.820;2023-04-03T01:31:15;0.30;90.50
44843;DHT22;31884;52.538;13.820;2023-04-03T01:33:44;0.30;90.60
44843;DHT22;31884;52.538;13.820;2023-04-03T01:36:15;0.30;90.80
44843;DHT22;31884;52.538;13.820;2023-04-03T01:38:41;0.30;91.10
44843;DHT22;31884;52.538;13.820;2023-04-03T01:41:06;0.20;91.30
44843;DHT22;31884;52.538;13.820;2023-04-03T01:43:32;0.20;91.70
44843;DHT22;31884;52.538;13.820;2023-04-03T01:45:57;0.20;92.00
44843;DHT22;31884;52.538;13.820;2023-04-03T01:48:22;0.20;92.20
44843;DHT22;31884;52.538;13.820;2023-04-03T01:50:48;0.20;92.20
44843;DHT22;31884;52.538;13.820;2023-04-03T01:53:14;0.20;92.70
44843;DHT22;31884;52.538;13.820;2023-04-03T01:55:39;0.10;92.90
44843;DHT22;31884;52.538;13.820;2023-04-03T01:58:05;0.10;93.20
44843;DHT22;31884;52.538;13.820;2023-04-03T02:00:30;0.10;93.30
44843;DHT22;31884;52.538;13.820;2023-04-03T02:02:56;0.00;93.70
44843;DHT22;31884;52.538;13.820;2023-04-03T02:05:22;0.00;94.30
44843;DHT22;31884;52.538;13.820;2023-04-03T02:07:47;0.00;94.50
44843;DHT22;31884;52.538;13.820;2023-04-03T02:10:13;0.00;94.90
44843;DHT22;31884;52.538;13.820;2023-04-03T02:12:39;0.00;95.30
44843;DHT22;31884;52.538;13.820;2023-04-03T02:15:05;-0.10;95.40
44843;DHT22;31884;52.538;13.820;2023-04-03T02:17:30;-0.10;95.70
44843;DHT22;31884;52.538;13.820;2023-04-03T02:19:56;-0.10;96.30
44843;DHT22;31884;52.538;13.820;2023-04-03T02:22:21;-0.20;96.90
44843;DHT22;31884;52.538;13.820;2023-04-03T02:24:47;-0.20;96.90
44843;DHT22;31884;52.538;13.820;2023-04-03T02:27:12;-0.20;97.30
44843;DHT22;31884;52.538;13.820;2023-04-03T02:29:38;-0.30;97.70
44843;DHT22;31884;52.538;13.820;2023-04-03T02:32:03;-0.30;98.30
44843;DHT22;31884;52.538;13.820;2023-04-03T02:34:29;-0.40;98.50
44843;DHT22;31884;52.538;13.820;2023-04-03T02:36:54;-0.40;98.10
44843;DHT22;31884;52.538;13.820;2023-04-03T02:39:20;-0.40;98.90
44843;DHT22;31884;52.538;13.820;2023-04-03T02:41:45;-0.50;99.10
44843;DHT22;31884;52.538;13.820;2023-04-03T02:44:11;-0.50;98.70
44843;DHT22;31884;52.538;13.820;2023-04-03T02:46:37;-0.60;99.10
44843;DHT22;31884;52.538;13.820;2023-04-03T02:49:03;-0.60;99.90
44843;DHT22;31884;52.538;13.820;2023-04-03T02:51:28;-0.60;99.90
44843;DHT22;31884;52.538;13.820;2023-04-03T02:53:54;-0.60;99.90
44843;DHT22;31884;52.538;13.820;2023-04-03T02:56:20;-0.70;99.90
44843;DHT22;31884;52.538;13.820;2023-04-03T02:58:46;-0.70;99.90
44843;DHT22;31884;52.538;13.820;2023-04-03T03:01:12;-0.70;99.90
44843;DHT22;31884;52.538;13.820;2023-04-03T03:03:38;-0.70;99.90
44843;DHT22;31884;52.538;13.820;2023-04-03T03:06:09;-0.70;99.90
44843;DHT22;31884;52.538;13.820;2023-04-03T03:08:35;-0.80;99.90
44843;DHT22;31884;52.538;13.820;2023-04-03T03:11:01;-0.80;99.90
44843;DHT22;31884;52.538;13.820;2023-04-03T03:13:26;-0.80;99.90
44843;DHT22;31884;52.538;13.820;2023-04-03T03:15:52;-0.90;99.90
44843;DHT22;31884;52.538;13.820;2023-04-03T03:18:17;-1.00;99.90
44843;DHT22;31884;52.538;13.820;2023-04-03T03:20:43;-1.00;99.90
44843;DHT22;31884;52.538;13.820;2023-04-03T03:23:09;-1.10;99.90
44843;DHT22;31884;52.538;13.820;2023-04-03T03:25:39;-1.10;99.60
44843;DHT22;31884;52.538;13.820;2023-04-03T03:28:05;-1.20;99.40
44843;DHT22;31884;52.538;13.820;2023-04-03T03:30:31;-1.20;99.60
44843;DHT22;31884;52.538;13.820;2023-04-03T03:32:56;-1.20;99.90
44843;DHT22;31884;52.538;13.820;2023-04-03T03:35:22;-1.20;99.90
44843;DHT22;31884;52.538;13.820;2023-04-03T03:37:48;-1.30;99.90
44843;DHT22;31884;52.538;13.820;2023-04-03T03:40:13;-1.30;99.90
44843;DHT22;31884;52.538;13.820;2023-04-03T03:42:39;-1.30;99.90
44843;DHT22;31884;52.538;13.820;2023-04-03T03:45:05;-1.40;99.90
44843;DHT22;31884;52.538;13.820;2023-04-03T03:47:31;-1.40;99.90
44843;DHT22;31884;52.538;13.820;2023-04-03T03:49:57;-1.40;99.90
44843;DHT22;31884;52.538;13.820;2023-04-03T03:52:22;-1.50;99.90
44843;DHT22;31884;52.538;13.820;2023-04-03T03:54:48;-1.50;99.90
44843;DHT22;31884;52.538;13.820;2023-04-03T03:57:13;-1.50;99.90
44843;DHT22;31884;52.538;13.820;2023-04-03T03:59:39;-1.50;99.90
44843;DHT22;31884;52.538;13.820;2023-04-03T04:02:07;-1.50;99.90
44843;DHT22;31884;52.538;13.820;2023-04-03T04:04:32;-1.60;99.90
44843;DHT22;31884;52.538;13.820;2023-04-03T04:06:58;-1.50;99.90
44843;DHT22;31884;52.538;13.820;2023-04-03T04:09:25;-1.60;99.90
44843;DHT22;31884;52.538;13.820;2023-04-03T04:11:51;-1.60;99.90
44843;DHT22;31884;52.538;13.820;2023-04-03T04:14:16;-1.60;99.90
44843;DHT22;31884;52.538;13.820;2023-04-03T04:16:42;-1.70;99.90
44843;DHT22;31884;52.538;13.820;2023-04-03T04:19:07;-1.70;99.90
44843;DHT22;31884;52.538;13.820;2023-04-03T04:21:33;-1.70;99.90
44843;DHT22;31884;52.538;13.820;2023-04-03T04:23:59;-1.70;99.90
44843;DHT22;31884;52.538;13.820;2023-04-03T04:26:24;-1.70;99.90
44843;DHT22;31884;52.538;13.820;2023-04-03T04:28:50;-1.70;99.90
44843;DHT22;31884;52.538;13.820;2023-04-03T04:31:16;-1.80;99.90
44843;DHT22;31884;52.538;13.820;2023-04-03T04:33:42;-1.80;99.90
44843;DHT22;31884;52.538;13.820;2023-04-03T04:36:08;-1.80;99.90
44843;DHT22;31884;52.538;13.820;2023-04-03T04:38:33;-1.80;99.90
44843;DHT22;31884;52.538;13.820;2023-04-03T04:40:59;-1.80;99.90
44843;DHT22;31884;52.538;13.820;2023-04-03T04:43:24;-1.80;99.90
44843;DHT22;31884;52.538;13.820;2023-04-03T04:46:07;-1.80;99.90
44843;DHT22;31884;52.538;13.820;2023-04-03T04:48:34;-1.80;99.90
44843;DHT22;31884;52.538;13.820;2023-04-03T04:51:00;-1.80;99.90
44843;DHT22;31884;52.538;13.820;2023-04-03T04:53:25;-1.80;99.90
44843;DHT22;31884;52.538;13.820;2023-04-03T04:55:52;-1.80;99.90
44843;DHT22;31884;52.538;13.820;2023-04-03T04:58:18;-1.80;99.90
44843;DHT22;31884;52.538;13.820;2023-04-03T05:00:43;-1.70;99.90
44843;DHT22;31884;52.538;13.820;2023-04-03T05:03:09;-1.70;99.90
44843;DHT22;31884;52.538;13.820;2023-04-03T05:05:35;-1.70;99.90
44843;DHT22;31884;52.538;13.820;2023-04-03T05:08:01;-1.60;99.90
44843;DHT22;31884;52.538;13.820;2023-04-03T05:10:27;-1.60;99.90
44843;DHT22;31884;52.538;13.820;2023-04-03T05:12:53;-1.30;99.90
44843;DHT22;31884;52.538;13.820;2023-04-03T05:15:18;-1.20;99.90
44843;DHT22;31884;52.538;13.820;2023-04-03T05:17:43;-1.00;99.90
44843;DHT22;31884;52.538;13.820;2023-04-03T05:20:09;-0.80;99.90
44843;DHT22;31884;52.538;13.820;2023-04-03T05:22:35;-0.70;99.90
44843;DHT22;31884;52.538;13.820;2023-04-03T05:25:01;-0.50;99.90
44843;DHT22;31884;52.538;13.820;2023-04-03T05:27:26;-0.40;99.90
44843;DHT22;31884;52.538;13.820;2023-04-03T05:29:54;-0.10;99.90
44843;DHT22;31884;52.538;13.820;2023-04-03T05:32:20;0.80;99.90
44843;DHT22;31884;52.538;13.820;2023-04-03T05:34:45;2.00;99.90
44843;DHT22;31884;52.538;13.820;2023-04-03T05:37:11;3.20;94.80
44843;DHT22;31884;52.538;13.820;2023-04-03T05:39:37;4.20;86.70
44843;DHT22;31884;52.538;13.820;2023-04-03T05:42:05;5.30;77.50
44843;DHT22;31884;52.538;13.820;2023-04-03T05:44:31;6.20;66.90
44843;DHT22;31884;52.538;13.820;2023-04-03T05:46:56;7.00;66.10
44843;DHT22;31884;52.538;13.820;2023-04-03T05:49:22;7.80;61.30
44843;DHT22;31884;52.538;13.820;2023-04-03T05:51:47;8.40;55.70
44843;DHT22;31884;52.538;13.820;2023-04-03T05:54:17;9.00;55.70
44843;DHT22;31884;52.538;13.820;2023-04-03T05:56:43;9.70;50.40
44843;DHT22;31884;52.538;13.820;2023-04-03T05:59:09;10.30;49.40
44843;DHT22;31884;52.538;13.820;2023-04-03T06:01:35;10.90;43.60
44843;DHT22;31884;52.538;13.820;2023-04-03T06:04:01;11.30;29.20
44843;DHT22;31884;52.538;13.820;2023-04-03T06:06:26;11.80;36.50
44843;DHT22;31884;52.538;13.820;2023-04-03T06:09:07;11.90;30.60
44843;DHT22;31884;52.538;13.820;2023-04-03T06:11:33;12.20;22.30
44843;DHT22;31884;52.538;13.820;2023-04-03T06:13:59;12.60;28.00
44843;DHT22;31884;52.538;13.820;2023-04-03T06:16:24;12.30;15.70
44843;DHT22;31884;52.538;13.820;2023-04-03T06:18:50;12.50;23.40
44843;DHT22;31884;52.538;13.820;2023-04-03T06:21:15;12.80;14.40
44843;DHT22;31884;52.538;13.820;2023-04-03T06:23:41;12.80;20.20
44843;DHT22;31884;52.538;13.820;2023-04-03T06:26:07;12.90;14.50
44843;DHT22;31884;52.538;13.820;2023-04-03T06:28:32;11.90;9.90
44843;DHT22;31884;52.538;13.820;2023-04-03T06:30:58;11.00;14.40
44843;DHT22;31884;52.538;13.820;2023-04-03T06:33:23;11.10;13.00
44843;DHT22;31884;52.538;13.820;2023-04-03T06:35:49;10.10;12.70
44843;DHT22;31884;52.538;13.820;2023-04-03T06:38:14;9.90;13.50
44843;DHT22;31884;52.538;13.820;2023-04-03T06:40:40;10.60;13.70
44843;DHT22;31884;52.538;13.820;2023-04-03T06:43:05;11.20;14.60
44843;DHT22;31884;52.538;13.820;2023-04-03T06:45:31;11.30;10.10
44843;DHT22;31884;52.538;13.820;2023-04-03T06:47:56;11.30;11.30
44843;DHT22;31884;52.538;13.820;2023-04-03T06:50:22;10.60;10.80
44843;DHT22;31884;52.538;13.820;2023-04-03T06:52:48;11.00;12.60
44843;DHT22;31884;52.538;13.820;2023-04-03T06:55:13;11.30;13.00
44843;DHT22;31884;52.538;13.820;2023-04-03T06:57:39;10.50;9.50
44843;DHT22;31884;52.538;13.820;2023-04-03T07:00:06;10.50;12.80
44843;DHT22;31884;52.538;13.820;2023-04-03T07:02:32;9.40;10.60
44843;DHT22;31884;52.538;13.820;2023-04-03T07:04:57;9.10;12.10
44843;DHT22;31884;52.538;13.820;2023-04-03T07:07:23;9.70;10.80
44843;DHT22;31884;52.538;13.820;2023-04-03T07:09:48;9.80;11.70
44843;DHT22;31884;52.538;13.820;2023-04-03T07:12:15;9.50;11.20
44843;DHT22;31884;52.538;13.820;2023-04-03T07:14:41;9.30;10.90
44843;DHT22;31884;52.538;13.820;2023-04-03T07:17:06;10.00;12.70
44843;DHT22;31884;52.538;13.820;2023-04-03T07:19:32;9.70;9.20
44843;DHT22;31884;52.538;13.820;2023-04-03T07:21:57;8.90;10.90
44843;DHT22;31884;52.538;13.820;2023-04-03T07:24:23;9.10;11.80
44843;DHT22;31884;52.538;13.820;2023-04-03T07:26:54;8.50;11.60
44843;DHT22;31884;52.538;13.820;2023-04-03T07:29:20;7.60;12.20
44843;DHT22;31884;52.538;13.820;2023-04-03T07:31:46;6.70;13.10
44843;DHT22;31884;52.538;13.820;2023-04-03T07:34:12;6.70;14.40
44843;DHT22;31884;52.538;13.820;2023-04-03T07:36:37;6.90;15.00
44843;DHT22;31884;52.538;13.820;2023-04-03T07:39:03;6.40;16.20
44843;DHT22;31884;52.538;13.820;2023-04-03T07:41:29;5.90;17.40
44843;DHT22;31884;52.538;13.820;2023-04-03T07:43:55;5.40;18.60
44843;DHT22;31884;52.538;13.820;2023-04-03T07:46:22;5.30;20.00
44843;DHT22;31884;52.538;13.820;2023-04-03T07:48:47;5.40;21.00
44843;DHT22;31884;52.538;13.820;2023-04-03T07:51:13;5.00;22.30
44843;DHT22;31884;52.538;13.820;2023-04-03T07:53:38;5.00;22.80
44843;DHT22;31884;52.538;13.820;2023-04-03T07:56:04;5.30;23.60
44843;DHT22;31884;52.538;13.820;2023-04-03T07:58:30;5.50;23.90
44843;DHT22;31884;52.538;13.820;2023-04-03T08:00:55;5.70;23.10
44843;DHT22;31884;52.538;13.820;2023-04-03T08:03:21;5.70;19.70
44843;DHT22;31884;52.538;13.820;2023-04-03T08:05:48;6.00;19.90
44843;DHT22;31884;52.538;13.820;2023-04-03T08:08:17;5.70;19.20
44843;DHT22;31884;52.538;13.820;2023-04-03T08:10:43;5.80;17.90
44843;DHT22;31884;52.538;13.820;2023-04-03T08:13:09;5.70;16.90
44843;DHT22;31884;52.538;13.820;2023-04-03T08:15:35;5.30;17.20
44843;DHT22;31884;52.538;13.820;2023-04-03T08:18:01;5.30;18.60
44843;DHT22;31884;52.538;13.820;2023-04-03T08:20:27;5.20;18.80
44843;DHT22;31884;52.538;13.820;2023-04-03T08:22:53;5.50;17.70
44843;DHT22;31884;52.538;13.820;2023-04-03T08:25:19;5.40;17.00
44843;DHT22;31884;52.538;13.820;2023-04-03T08:27:44;5.40;17.30
44843;DHT22;31884;52.538;13.820;2023-04-03T08:30:10;5.40;18.30
44843;DHT22;31884;52.538;13.820;2023-04-03T08:32:36;5.60;18.70
44843;DHT22;31884;52.538;13.820;2023-04-03T08:35:03;5.60;18.50
44843;DHT22;31884;52.538;13.820;2023-04-03T08:37:28;5.50;18.40
44843;DHT22;31884;52.538;13.820;2023-04-03T08:39:54;5.20;18.40
44843;DHT22;31884;52.538;13.820;2023-04-03T08:45:12;5.10;19.90
44843;DHT22;31884;52.538;13.820;2023-04-03T08:47:59;5.40;18.60
44843;DHT22;31884;52.538;13.820;2023-04-03T08:50:31;6.00;16.90
44843;DHT22;31884;52.538;13.820;2023-04-03T08:52:59;6.40;16.80
44843;DHT22;31884;52.538;13.820;2023-04-03T08:55:31;6.60;14.20
44843;DHT22;31884;52.538;13.820;2023-04-03T08:58:06;6.50;14.20
44843;DHT22;31884;52.538;13.820;2023-04-03T09:00:49;6.40;13.90
44843;DHT22;31884;52.538;13.820;2023-04-03T09:03:17;5.90;13.70
44843;DHT22;31884;52.538;13.820;2023-04-03T09:06:05;6.10;15.00
44843;DHT22;31884;52.538;13.820;2023-04-03T09:08:40;5.80;15.60
44843;DHT22;31884;52.538;13.820;2023-04-03T09:16:58;5.60;15.60
44843;DHT22;31884;52.538;13.820;2023-04-03T09:22:18;5.90;15.70
44843;DHT22;31884;52.538;13.820;2023-04-03T09:24:49;5.50;15.30
44843;DHT22;31884;52.538;13.820;2023-04-03T09:27:15;6.00;16.90
44843;DHT22;31884;52.538;13.820;2023-04-03T09:29:43;6.20;14.80
44843;DHT22;31884;52.538;13.820;2023-04-03T09:32:29;5.90;14.90
44843;DHT22;31884;52.538;13.820;2023-04-03T09:34:59;5.80;15.90
44843;DHT22;31884;52.538;13.820;2023-04-03T09:37:41;5.60;17.00
44843;DHT22;31884;52.538;13.820;2023-04-03T09:42:59;5.20;18.70
44843;DHT22;31884;52.538;13.820;2023-04-03T09:45:29;5.20;20.40
44843;DHT22;31884;52.538;13.820;2023-04-03T09:48:08;5.10;21.00
44843;DHT22;31884;52.538;13.820;2023-04-03T09:50:35;5.20;21.90
44843;DHT22;31884;52.538;13.820;2023-04-03T09:53:06;5.40;20.90
44843;DHT22;31884;52.538;13.820;2023-04-03T09:55:42;5.80;21.20
44843;DHT22;31884;52.538;13.820;2023-04-03T09:58:26;6.30;19.90
44843;DHT22;31884;52.538;13.820;2023-04-03T10:01:01;6.70;18.40
44843;DHT22;31884;52.538;13.820;2023-04-03T10:03:35;6.90;18.10
44843;DHT22;31884;52.538;13.820;2023-04-03T10:06:02;6.60;17.20
44843;DHT22;31884;52.538;13.820;2023-04-03T10:08:33;6.10;17.50
44843;DHT22;31884;52.538;13.820;2023-04-03T10:13:35;5.40;19.20
44843;DHT22;31884;52.538;13.820;2023-04-03T10:16:06;5.40;20.00
44843;DHT22;31884;52.538;13.820;2023-04-03T10:18:54;5.70;20.20
44843;DHT22;31884;52.538;13.820;2023-04-03T10:24:14;5.80;19.90
44843;DHT22;31884;52.538;13.820;2023-04-03T10:32:32;5.60;22.30
44843;DHT22;31884;52.538;13.820;2023-04-03T10:35:12;5.60;22.40
44843;DHT22;31884;52.538;13.820;2023-04-03T10:40:40;5.80;21.50
44843;DHT22;31884;52.538;13.820;2023-04-03T10:46:11;5.60;21.40
44843;DHT22;31884;52.538;13.820;2023-04-03T10:51:23;5.50;23.60
44843;DHT22;31884;52.538;13.820;2023-04-03T10:53:57;5.60;24.10
44843;DHT22;31884;52.538;13.820;2023-04-03T10:56:54;5.50;24.50
44843;DHT22;31884;52.538;13.820;2023-04-03T10:59:38;5.30;26.00
44843;DHT22;31884;52.538;13.820;2023-04-03T11:04:39;5.70;26.50
44843;DHT22;31884;52.538;13.820;2023-04-03T11:07:13;5.70;26.30
44843;DHT22;31884;52.538;13.820;2023-04-03T11:09:42;5.60;26.00
44843;DHT22;31884;52.538;13.820;2023-04-03T11:12:48;5.50;26.50
44843;DHT22;31884;52.538;13.820;2023-04-03T11:15:19;5.40;26.40
44843;DHT22;31884;52.538;13.820;2023-04-03T11:17:54;5.70;26.90
44843;DHT22;31884;52.538;13.820;2023-04-03T11:20:29;5.80;24.40
44843;DHT22;31884;52.538;13.820;2023-04-03T11:25:30;6.10;24.10
44843;DHT22;31884;52.538;13.820;2023-04-03T11:28:02;6.20;24.10
44843;DHT22;31884;52.538;13.820;2023-04-03T11:30:49;6.30;22.70
44843;DHT22;31884;52.538;13.820;2023-04-03T11:36:24;6.10;21.90
44843;DHT22;31884;52.538;13.820;2023-04-03T11:38:54;5.80;21.30
44843;DHT22;31884;52.538;13.820;2023-04-03T11:41:26;5.80;21.60
44843;DHT22;31884;52.538;13.820;2023-04-03T11:43:58;5.60;21.80
44843;DHT22;31884;52.538;13.820;2023-04-03T11:46:54;5.80;21.80
44843;DHT22;31884;52.538;13.820;2023-04-03T12:26:50;5.70;23.30
44843;DHT22;31884;52.538;13.820;2023-04-03T12:29:27;5.60;23.00
44843;DHT22;31884;52.538;13.820;2023-04-03T12:32:22;5.70;24.00
44843;DHT22;31884;52.538;13.820;2023-04-03T12:40:39;5.50;24.40
44843;DHT22;31884;52.538;13.820;2023-04-03T12:46:04;5.60;24.50
44843;DHT22;31884;52.538;13.820;2023-04-03T12:48:54;5.80;24.80
44843;DHT22;31884;52.538;13.820;2023-04-03T12:54:02;5.70;24.70
44843;DHT22;31884;52.538;13.820;2023-04-03T12:56:32;5.70;25.20
44843;DHT22;31884;52.538;13.820;2023-04-03T13:01:40;5.80;24.30
44843;DHT22;31884;52.538;13.820;2023-04-03T13:04:06;5.60;24.80
44843;DHT22;31884;52.538;13.820;2023-04-03T13:06:38;5.60;25.40
44843;DHT22;31884;52.538;13.820;2023-04-03T13:09:06;5.70;24.50
44843;DHT22;31884;52.538;13.820;2023-04-03T13:11:41;5.70;24.30
44843;DHT22;31884;52.538;13.820;2023-04-03T13:14:22;5.40;25.90
44843;DHT22;31884;52.538;13.820;2023-04-03T13:19:25;5.00;28.10
44843;DHT22;31884;52.538;13.820;2023-04-03T13:21:57;5.00;29.10
44843;DHT22;31884;52.538;13.820;2023-04-03T13:24:23;5.10;29.90
44843;DHT22;31884;52.538;13.820;2023-04-03T13:26:51;5.40;29.30
44843;DHT22;31884;52.538;13.820;2023-04-03T13:29:25;5.50;29.00
44843;DHT22;31884;52.538;13.820;2023-04-03T13:31:54;5.60;28.60
44843;DHT22;31884;52.538;13.820;2023-04-03T13:34:42;5.60;28.30
44843;DHT22;31884;52.538;13.820;2023-04-03T13:37:20;5.60;29.00
44843;DHT22;31884;52.538;13.820;2023-04-03T13:40:01;5.70;29.30
44843;DHT22;31884;52.538;13.820;2023-04-03T13:42:30;5.80;28.70
44843;DHT22;31884;52.538;13.820;2023-04-03T13:45:19;5.90;28.90
44843;DHT22;31884;52.538;13.820;2023-04-03T13:47:46;5.90;28.60
44843;DHT22;31884;52.538;13.820;2023-04-03T13:53:00;6.20;27.30
44843;DHT22;31884;52.538;13.820;2023-04-03T13:55:33;6.20;26.20
44843;DHT22;31884;52.538;13.820;2023-04-03T13:58:24;6.30;25.00
44843;DHT22;31884;52.538;13.820;2023-04-03T14:00:58;6.00;26.00
44843;DHT22;31884;52.538;13.820;2023-04-03T14:03:36;6.10;27.10
44843;DHT22;31884;52.538;13.820;2023-04-03T14:06:06;6.10;26.90
44843;DHT22;31884;52.538;13.820;2023-04-03T14:08:32;6.20;26.30
44843;DHT22;31884;52.538;13.820;2023-04-03T14:10:57;6.00;25.90
44843;DHT22;31884;52.538;13.820;2023-04-03T14:13:23;5.80;27.00
44843;DHT22;31884;52.538;13.820;2023-04-03T14:15:49;5.70;28.70
44843;DHT22;31884;52.538;13.820;2023-04-03T14:18:18;5.60;29.60
44843;DHT22;31884;52.538;13.820;2023-04-03T14:20:45;5.50;30.40
44843;DHT22;31884;52.538;13.820;2023-04-03T14:23:11;5.50;31.20
44843;DHT22;31884;52.538;13.820;2023-04-03T14:25:37;5.50;31.80
44843;DHT22;31884;52.538;13.820;2023-04-03T14:28:22;5.50;32.50
44843;DHT22;31884;52.538;13.820;2023-04-03T14:30:49;5.50;33.10
44843;DHT22;31884;52.538;13.820;2023-04-03T14:33:18;5.40;33.40
44843;DHT22;31884;52.538;13.820;2023-04-03T14:35:44;5.50;34.80
44843;DHT22;31884;52.538;13.820;2023-04-03T14:38:25;5.40;34.60
44843;DHT22;31884;52.538;13.820;2023-04-03T14:40:52;5.40;35.20
44843;DHT22;31884;52.538;13.820;2023-04-03T14:43:18;5.50;36.20
44843;DHT22;31884;52.538;13.820;2023-04-03T14:45:44;5.50;36.00
44843;DHT22;31884;52.538;13.820;2023-04-03T14:48:26;5.40;37.40
44843;DHT22;31884;52.538;13.820;2023-04-03T14:50:53;5.40;37.20
44843;DHT22;31884;52.538;13.820;2023-04-03T14:53:19;5.50;38.00
44843;DHT22;31884;52.538;13.820;2023-04-03T14:55:49;5.60;38.10
44843;DHT22;31884;52.538;13.820;2023-04-03T14:58:18;5.60;37.60
44843;DHT22;31884;52.538;13.820;2023-04-03T15:00:44;5.60;37.70
44843;DHT22;31884;52.538;13.820;2023-04-03T15:03:17;5.80;37.20
44843;DHT22;31884;52.538;13.820;2023-04-03T15:05:44;5.80;37.20
44843;DHT22;31884;52.538;13.820;2023-04-03T15:08:28;5.80;36.50
44843;DHT22;31884;52.538;13.820;2023-04-03T15:10:57;5.70;36.60
44843;DHT22;31884;52.538;13.820;2023-04-03T15:13:23;5.40;37.40
44843;DHT22;31884;52.538;13.820;2023-04-03T15:15:50;5.20;38.80
44843;DHT22;31884;52.538;13.820;2023-04-03T15:18:22;5.10;39.20
44843;DHT22;31884;52.538;13.820;2023-04-03T15:20:48;4.90;40.20
44843;DHT22;31884;52.538;13.820;2023-04-03T15:23:15;4.90;40.30
44843;DHT22;31884;52.538;13.820;2023-04-03T15:25:44;4.80;40.10
44843;DHT22;31884;52.538;13.820;2023-04-03T15:28:22;4.90;39.20
44843;DHT22;31884;52.538;13.820;2023-04-03T15:30:48;4.90;39.20
44843;DHT22;31884;52.538;13.820;2023-04-03T15:33:14;5.00;38.80
44843;DHT22;31884;52.538;13.820;2023-04-03T15:35:41;5.20;38.10
44843;DHT22;31884;52.538;13.820;2023-04-03T15:38:06;5.30;37.10
44843;DHT22;31884;52.538;13.820;2023-04-03T15:40:32;5.50;35.20
44843;DHT22;31884;52.538;13.820;2023-04-03T15:42:57;5.30;32.10
44843;DHT22;31884;52.538;13.820;2023-04-03T15:45:23;5.30;32.50
44843;DHT22;31884;52.538;13.820;2023-04-03T15:47:48;5.30;33.70
44843;DHT22;31884;52.538;13.820;2023-04-03T15:50:14;5.20;34.40
44843;DHT22;31884;52.538;13.820;2023-04-03T15:52:40;5.10;35.10
44843;DHT22;31884;52.538;13.820;2023-04-03T15:55:06;5.10;36.20
44843;DHT22;31884;52.538;13.820;2023-04-03T15:57:31;5.00;37.00
44843;DHT22;31884;52.538;13.820;2023-04-03T15:59:57;4.90;37.40
44843;DHT22;31884;52.538;13.820;2023-04-03T16:02:23;4.80;38.20
44843;DHT22;31884;52.538;13.820;2023-04-03T16:04:49;4.80;38.70
44843;DHT22;31884;52.538;13.820;2023-04-03T16:07:14;4.70;38.40
44843;DHT22;31884;52.538;13.820;2023-04-03T16:09:40;4.70;39.20
44843;DHT22;31884;52.538;13.820;2023-04-03T16:12:05;4.70;40.00
44843;DHT22;31884;52.538;13.820;2023-04-03T16:14:31;4.70;40.70
44843;DHT22;31884;52.538;13.820;2023-04-03T16:16:58;4.70;41.20
44843;DHT22;31884;52.538;13.820;2023-04-03T16:19:24;4.70;40.70
44843;DHT22;31884;52.538;13.820;2023-04-03T16:21:49;4.60;41.00
44843;DHT22;31884;52.538;13.820;2023-04-03T16:24:15;4.60;41.00
44843;DHT22;31884;52.538;13.820;2023-04-03T16:26:40;4.50;40.90
44843;DHT22;31884;52.538;13.820;2023-04-03T16:29:06;4.50;40.20
44843;DHT22;31884;52.538;13.820;2023-04-03T16:31:32;4.50;40.90
44843;DHT22;31884;52.538;13.820;2023-04-03T16:33:58;4.40;41.50
44843;DHT22;31884;52.538;13.820;2023-04-03T16:36:25;4.40;42.10
44843;DHT22;31884;52.538;13.820;2023-04-03T16:38:51;4.40;42.80
44843;DHT22;31884;52.538;13.820;2023-04-03T16:41:16;4.40;43.40
44843;DHT22;31884;52.538;13.820;2023-04-03T16:43:42;4.40;43.30
44843;DHT22;31884;52.538;13.820;2023-04-03T16:46:07;4.40;44.20
44843;DHT22;31884;52.538;13.820;2023-04-03T16:48:33;4.40;45.10
44843;DHT22;31884;52.538;13.820;2023-04-03T16:50:58;4.30;45.30
44843;DHT22;31884;52.538;13.820;2023-04-03T16:53:25;4.30;46.00
44843;DHT22;31884;52.538;13.820;2023-04-03T16:55:51;4.30;46.50
44843;DHT22;31884;52.538;13.820;2023-04-03T16:58:17;4.30;46.90
44843;DHT22;31884;52.538;13.820;2023-04-03T17:00:42;4.30;47.40
44843;DHT22;31884;52.538;13.820;2023-04-03T17:03:08;4.40;48.10
44843;DHT22;31884;52.538;13.820;2023-04-03T17:05:34;4.30;49.70
44843;DHT22;31884;52.538;13.820;2023-04-03T17:08:00;4.30;49.80
44843;DHT22;31884;52.538;13.820;2023-04-03T17:10:27;4.30;49.90
44843;DHT22;31884;52.538;13.820;2023-04-03T17:12:53;4.30;51.10
44843;DHT22;31884;52.538;13.820;2023-04-03T17:15:19;4.20;51.30
44843;DHT22;31884;52.538;13.820;2023-04-03T17:17:45;4.20;51.80